Time;durP1;ratioP1;P1;durP2;ratioP2;P2;SDS_P1;SDS_P2;PMS_P1;PMS_P2;Temp;Humidity;BMP_temperature;BMP_pressure;BME280_temperature;BME280_humidity;BME280_pressure;Samples;Min_cycle;Max_cycle;Signal;HPM_P1;HPM_P2
2023/05/13 00:00:06;;;;;;;11.47;3.77;;;;;;;16.59;46.67;100655.63;4862454;28;20724;-58
2023/05/13 00:02:38;;;;;;;9.63;4.00;;;;;;;16.66;46.97;100623.78;4858824;28;20335;-57
2023/05/13 00:05:10;;;;;;;10.77;6.70;;;;;;;16.88;46.19;100650.28;4858051;28;20367;-58
2023/05/13 00:07:41;;;;;;;6.90;4.00;;;;;;;16.95;46.46;100633.31;4856708;28;20277;-57
2023/05/13 00:10:12;;;;;;;9.73;4.80;;;;;;;17.05;46.20;100642.63;4855592;28;20300;-56
2023/05/13 00:12:43;;;;;;;7.87;3.80;;;;;;;17.17;45.88;100630.72;4850476;28;20285;-57
2023/05/13 00:15:13;;;;;;;6.23;3.43;;;;;;;17.19;45.31;100624.47;4857952;28;20349;-57
2023/05/13 00:17:46;;;;;;;5.90;3.37;;;;;;;17.29;45.60;100624.13;4856066;28;20293;-57
2023/05/13 00:20:19;;;;;;;11.13;3.73;;;;;;;17.33;45.97;100609.88;4855883;28;20288;-57
2023/05/13 00:22:53;;;;;;;8.87;3.97;;;;;;;17.43;45.60;100605.97;4857621;28;20285;-57
2023/05/13 00:25:24;;;;;;;9.30;3.73;;;;;;;17.62;45.16;100612.25;4850285;28;20325;-57
2023/05/13 00:27:56;;;;;;;9.87;4.27;;;;;;;17.72;45.79;100614.50;4857754;28;20287;-56
2023/05/13 00:30:29;;;;;;;7.63;3.80;;;;;;;17.89;44.83;100625.28;4857399;28;20766;-57
2023/05/13 00:33:01;;;;;;;8.23;3.70;;;;;;;17.83;44.79;100614.97;4855732;28;20285;-57
2023/05/13 00:35:32;;;;;;;8.90;3.50;;;;;;;17.98;44.78;100619.63;4864538;28;20251;-57
2023/05/13 00:38:03;;;;;;;14.67;4.00;;;;;;;18.09;44.78;100617.38;4855560;28;20305;-57
2023/05/13 00:40:38;;;;;;;10.53;3.43;;;;;;;18.22;43.82;100611.56;4859775;28;20289;-57
2023/05/13 00:43:09;;;;;;;7.53;3.90;;;;;;;18.35;44.52;100611.94;4855971;28;20270;-57
2023/05/13 00:45:42;;;;;;;12.47;4.17;;;;;;;18.51;43.98;100603.22;4856054;28;20746;-57
2023/05/13 00:48:15;;;;;;;13.07;3.83;;;;;;;18.59;43.41;100609.97;4857689;28;20364;-56
2023/05/13 00:50:46;;;;;;;9.83;3.63;;;;;;;18.54;42.47;100603.09;4854943;28;20293;-58
2023/05/13 00:53:19;;;;;;;7.33;4.00;;;;;;;18.63;42.36;100606.28;4854489;28;20296;-57
2023/05/13 00:55:50;;;;;;;8.77;3.50;;;;;;;18.75;42.58;100608.38;4851829;28;20288;-57
2023/05/13 00:58:20;;;;;;;20.47;4.67;;;;;;;18.73;42.90;100576.69;4862734;28;20872;-57
2023/05/13 01:01:03;;;;;;;14.47;3.60;;;;;;;18.78;42.87;100567.72;4857068;28;20288;-58
2023/05/13 01:07:45;;;;;;;9.40;3.67;;;;;;;19.17;41.68;100583.56;4093620;27;25242111;-58
2023/05/13 01:10:42;;;;;;;6.53;3.50;;;;;;;19.17;41.77;100583.56;4937435;27;20058;-58
2023/05/13 01:13:17;;;;;;;12.88;3.60;;;;;;;19.33;41.29;100587.19;4951607;27;20323;-58
2023/05/13 01:15:54;;;;;;;9.80;4.03;;;;;;;19.32;41.49;100585.47;4958466;27;20043;-58
2023/05/13 01:18:29;;;;;;;8.23;3.50;;;;;;;19.42;40.56;100595.59;4947679;27;20670;-58
2023/05/13 01:21:05;;;;;;;13.77;4.27;;;;;;;19.38;40.92;100579.88;4960824;27;20281;-58
2023/05/13 01:23:38;;;;;;;10.77;3.80;;;;;;;19.49;41.11;100575.84;4967004;27;20630;-57
2023/05/13 01:26:09;;;;;;;6.97;3.23;;;;;;;19.71;39.81;100570.38;4974135;27;20280;-57
2023/05/13 01:28:40;;;;;;;10.27;3.67;;;;;;;19.64;39.83;100569.78;4973602;27;20300;-57
2023/05/13 01:31:13;;;;;;;8.73;3.40;;;;;;;19.80;40.40;100565.47;4959872;27;20293;-58
2023/05/13 01:33:45;;;;;;;9.70;3.43;;;;;;;20.13;40.57;100567.34;4960650;27;20279;-58
2023/05/13 01:36:17;;;;;;;8.97;3.17;;;;;;;20.15;40.01;100559.34;4971680;27;20289;-57
2023/05/13 01:38:52;;;;;;;10.73;3.77;;;;;;;20.23;39.45;100568.59;4975259;27;20304;-58
2023/05/13 01:41:23;;;;;;;10.80;4.03;;;;;;;20.07;39.37;100541.16;4970217;27;21019;-57
2023/05/13 01:43:55;;;;;;;8.27;3.67;;;;;;;20.34;39.68;100553.91;4977452;27;20770;-57
2023/05/13 01:46:26;;;;;;;14.17;3.30;;;;;;;20.52;38.83;100557.38;4973950;27;20368;-57
2023/05/13 01:48:58;;;;;;;10.20;3.60;;;;;;;20.57;39.36;100553.59;4974452;27;20355;-57
2023/05/13 01:51:32;;;;;;;7.00;3.30;;;;;;;20.78;38.52;100548.06;4974623;27;20345;-57
2023/05/13 01:54:05;;;;;;;10.37;3.30;;;;;;;20.72;37.54;100543.06;4969933;27;20396;-57
2023/05/13 01:56:37;;;;;;;8.70;3.90;;;;;;;20.74;38.10;100546.50;4976200;27;20384;-57
2023/05/13 01:59:10;;;;;;;7.60;3.10;;;;;;;20.91;37.60;100527.84;4976479;27;20612;-57
2023/05/13 02:01:43;;;;;;;7.60;3.10;;;;;;;21.03;35.98;100537.81;4958575;27;20288;-57
2023/05/13 02:04:15;;;;;;;4.10;2.50;;;;;;;21.06;34.84;100532.31;4946501;27;20446;-57
2023/05/13 02:06:47;;;;;;;8.33;3.33;;;;;;;21.08;35.40;100525.13;4957361;27;21469;-57
2023/05/13 02:09:20;;;;;;;5.87;2.87;;;;;;;21.20;34.39;100530.72;4952847;27;20324;-58
2023/05/13 02:11:51;;;;;;;5.17;3.20;;;;;;;21.25;34.11;100536.63;4956443;27;20367;-57
2023/05/13 02:14:23;;;;;;;18.50;3.40;;;;;;;21.14;33.47;100533.69;4963353;27;20370;-57
2023/05/13 02:16:57;;;;;;;4.90;3.10;;;;;;;21.22;34.45;100532.34;4959314;27;20304;-57
2023/05/13 02:19:28;;;;;;;9.60;2.80;;;;;;;21.24;32.42;100514.50;4934604;27;20289;-57
2023/05/13 02:22:00;;;;;;;11.80;2.77;;;;;;;21.27;33.54;100524.09;4951347;27;20345;-58
2023/05/13 02:24:34;;;;;;;5.97;3.00;;;;;;;21.31;33.43;100528.28;4948063;27;20331;-58
2023/05/13 02:27:06;;;;;;;6.13;2.93;;;;;;;21.48;33.71;100522.88;4940223;27;20281;-58
2023/05/13 02:29:37;;;;;;;6.37;3.23;;;;;;;21.51;32.83;100528.03;4951150;27;20300;-57
2023/05/13 02:32:09;;;;;;;7.83;3.20;;;;;;;21.58;33.59;100522.38;4951042;27;20354;-58
2023/05/13 02:34:41;;;;;;;4.57;3.20;;;;;;;21.66;33.28;100522.78;4960929;27;20285;-58
2023/05/13 02:37:12;;;;;;;19.97;4.70;;;;;;;21.77;33.55;100523.00;4952476;27;20284;-58
2023/05/13 02:39:45;;;;;;;6.90;2.60;;;;;;;21.93;33.35;100529.13;4948065;27;20282;-57
2023/05/13 02:42:17;;;;;;;6.00;2.53;;;;;;;21.79;32.45;100521.13;4957388;27;20867;-58
2023/05/13 02:44:49;;;;;;;11.17;2.57;;;;;;;21.81;32.84;100527.19;4958035;27;20279;-58
2023/05/13 02:47:20;;;;;;;15.23;3.40;;;;;;;21.88;33.11;100525.88;4952824;27;20293;-57
2023/05/13 02:49:52;;;;;;;5.93;2.47;;;;;;;21.87;32.65;100507.38;4954827;27;20743;-58
2023/05/13 02:52:23;;;;;;;6.77;2.63;;;;;;;21.88;32.93;100514.38;4949627;27;20286;-58
2023/05/13 02:54:57;;;;;;;4.17;2.50;;;;;;;21.85;32.61;100503.94;4954849;27;20290;-58
2023/05/13 02:57:28;;;;;;;4.10;3.17;;;;;;;21.98;32.39;100516.41;4958730;27;20406;-58
2023/05/13 03:00:00;;;;;;;6.73;2.63;;;;;;;21.92;32.59;100510.59;4957796;27;20379;-58
2023/05/13 03:02:31;;;;;;;8.23;3.27;;;;;;;21.81;32.08;100513.88;4960782;27;20369;-58
2023/05/13 03:05:03;;;;;;;8.00;2.90;;;;;;;21.89;32.58;100510.78;4956309;27;20278;-56
2023/05/13 03:07:35;;;;;;;13.03;3.23;;;;;;;21.96;32.75;100512.13;4934919;27;20287;-56
2023/05/13 03:10:09;;;;;;;8.77;2.87;;;;;;;21.96;31.04;100523.59;4931764;28;20358;-57
2023/05/13 03:12:42;;;;;;;11.77;3.10;;;;;;;21.81;31.98;100521.00;4928336;28;21159;-57
2023/05/13 03:15:13;;;;;;;25.73;3.83;;;;;;;21.67;32.22;100505.88;4916270;28;20797;-57
2023/05/13 03:17:45;;;;;;;5.57;2.97;;;;;;;21.81;32.37;100532.50;4918000;28;21074;-57
2023/05/13 03:20:17;;;;;;;5.07;2.80;;;;;;;21.76;31.45;100522.13;4923573;28;20734;-57
2023/05/13 03:22:49;;;;;;;9.57;3.87;;;;;;;21.61;32.11;100527.50;4931202;28;20284;-56
2023/05/13 03:25:23;;;;;;;7.30;3.50;;;;;;;21.46;31.15;100513.28;4942092;28;20285;-56
2023/05/13 03:27:56;;;;;;;9.87;3.13;;;;;;;21.38;31.51;100516.34;4932055;28;20291;-56
2023/05/13 03:30:27;;;;;;;9.03;3.17;;;;;;;21.27;30.87;100509.00;4943421;28;20277;-57
2023/05/13 03:32:59;;;;;;;92.77;7.33;;;;;;;21.33;29.82;100534.38;4942325;28;20338;-56
2023/05/13 03:35:30;;;;;;;36.33;4.37;;;;;;;21.26;29.75;100541.81;4941941;28;20824;-55
2023/05/13 03:38:02;;;;;;;15.37;3.13;;;;;;;21.02;29.52;100546.72;4942705;28;20293;-57
2023/05/13 03:40:35;;;;;;;22.27;3.33;;;;;;;20.89;29.48;100540.34;4940548;28;20740;-56
2023/05/13 03:43:07;;;;;;;21.77;3.60;;;;;;;20.71;29.72;100522.78;4942175;28;20281;-56
2023/05/13 03:45:38;;;;;;;7.43;2.80;;;;;;;20.76;29.18;100549.94;4941241;28;20285;-56
2023/05/13 03:48:10;;;;;;;17.33;3.23;;;;;;;20.70;29.37;100544.97;4932102;28;20376;-56
2023/05/13 03:50:41;;;;;;;10.23;3.03;;;;;;;20.80;30.56;100556.81;4943338;27;21157;-57
2023/05/13 03:53:13;;;;;;;15.20;3.67;;;;;;;20.82;29.12;100544.31;4938262;28;20285;-56
2023/05/13 03:55:47;;;;;;;25.13;3.90;;;;;;;20.90;29.78;100550.91;4942549;28;20282;-57
2023/05/13 03:58:20;;;;;;;16.47;2.70;;;;;;;20.76;29.24;100549.94;4943812;28;20316;-56
2023/05/13 04:00:52;;;;;;;8.23;3.10;;;;;;;20.74;30.90;100557.13;4929729;28;20294;-56
2023/05/13 04:03:23;;;;;;;8.77;3.17;;;;;;;20.67;30.39;100557.47;4926608;28;20275;-57
2023/05/13 04:05:55;;;;;;;17.57;3.20;;;;;;;20.67;30.94;100554.81;4929333;28;20291;-57
2023/05/13 04:08:26;;;;;;;7.90;3.23;;;;;;;20.79;30.86;100549.78;4917125;28;20292;-56
2023/05/13 04:11:00;;;;;;;9.10;3.20;;;;;;;20.65;29.71;100546.09;4939949;28;20842;-57
2023/05/13 04:13:31;;;;;;;12.27;2.93;;;;;;;20.66;30.77;100554.91;4917620;28;20311;-57
2023/05/13 04:16:03;;;;;;;7.77;2.90;;;;;;;20.65;30.25;100546.09;4939481;28;20448;-57
2023/05/13 04:18:35;;;;;;;12.40;3.37;;;;;;;20.46;30.19;100526.72;4950271;27;20716;-59
2023/05/13 04:21:10;;;;;;;9.27;2.70;;;;;;;20.54;31.10;100534.28;4942723;27;20277;-57
2023/05/13 04:23:42;;;;;;;16.37;3.57;;;;;;;20.60;30.73;100540.16;4940739;28;20331;-64
2023/05/13 04:26:15;;;;;;;14.13;3.17;;;;;;;20.44;30.51;100555.16;4935719;27;20316;-57
2023/05/13 04:28:47;;;;;;;11.13;2.90;;;;;;;20.38;29.57;100547.53;4947511;27;20764;-58
2023/05/13 04:31:18;;;;;;;5.80;2.70;;;;;;;20.41;30.29;100547.34;4941965;28;20297;-56
2023/05/13 04:33:49;;;;;;;10.83;3.10;;;;;;;20.51;31.27;100540.59;4922652;28;20782;-58
2023/05/13 04:36:21;;;;;;;9.83;3.13;;;;;;;20.53;29.95;100545.84;4939479;27;20289;-58
2023/05/13 04:38:54;;;;;;;6.73;3.30;;;;;;;20.45;30.42;100547.09;4941781;28;20252;-57
2023/05/13 04:41:27;;;;;;;8.07;2.97;;;;;;;20.21;29.68;100493.53;4931026;28;20277;-58
2023/05/13 04:43:58;;;;;;;18.67;3.93;;;;;;;20.41;29.79;100531.44;4940725;28;20293;-58
2023/05/13 04:46:30;;;;;;;10.57;2.70;;;;;;;20.24;29.74;100527.88;4942815;27;20970;-58
2023/05/13 04:49:01;;;;;;;6.37;3.00;;;;;;;20.28;29.90;100533.03;4943447;28;20316;-57
2023/05/13 04:51:33;;;;;;;24.43;3.93;;;;;;;20.09;29.89;100509.22;4942400;27;20806;-58
2023/05/13 04:54:07;;;;;;;8.60;3.40;;;;;;;20.34;30.94;100545.94;4942556;27;20318;-57
2023/05/13 04:56:39;;;;;;;9.30;2.90;;;;;;;20.42;30.68;100546.44;4944316;28;20529;-58
2023/05/13 04:59:10;;;;;;;9.70;4.07;;;;;;;20.38;30.75;100547.53;4941471;28;20277;-57
2023/05/13 05:01:40;;;;;;;9.60;3.60;;;;;;;20.37;30.38;100548.47;4942726;28;20296;-57
2023/05/13 05:04:11;;;;;;;5.43;3.20;;;;;;;20.35;30.17;100534.41;4937729;28;20291;-58
2023/05/13 05:06:42;;;;;;;11.07;3.07;;;;;;;20.44;30.59;100539.22;4949769;28;20290;-58
2023/05/13 05:09:13;;;;;;;11.30;5.10;;;;;;;20.45;30.61;100533.00;4962236;28;20286;-57
2023/05/13 05:11:49;;;;;;;15.50;4.60;;;;;;;20.10;30.85;100477.34;4957000;28;20290;-59
2023/05/13 05:14:19;;;;;;;8.53;3.83;;;;;;;20.39;30.19;100535.94;4967291;28;20283;-59
2023/05/13 05:16:52;;;;;;;10.10;3.80;;;;;;;20.21;29.16;100532.47;4959302;28;21055;-59
2023/05/13 05:19:24;;;;;;;15.40;4.50;;;;;;;20.02;30.44;100516.66;4953392;28;20886;-59
2023/05/13 05:22:03;;;;;;;12.83;3.53;;;;;;;20.11;29.68;100525.94;4956058;28;20288;-59
2023/05/13 05:24:42;;;;;;;7.88;3.58;;;;;;;19.97;29.76;100524.00;4946045;28;20272;-58
2023/05/13 05:27:16;;;;;;;9.20;3.17;;;;;;;19.49;29.44;100460.06;4948742;28;20040;-59
2023/05/13 05:29:48;;;;;;;14.67;4.10;;;;;;;19.63;30.71;100515.06;4956534;28;21600;-59
2023/05/13 05:32:24;;;;;;;10.73;3.50;;;;;;;19.59;29.37;100513.47;4956264;28;20763;-58
2023/05/13 05:34:55;;;;;;;7.63;3.10;;;;;;;19.59;29.54;100518.78;4946590;28;20321;-59
2023/05/13 05:37:27;;;;;;;14.03;3.43;;;;;;;19.47;29.68;100519.38;4933887;28;20281;-59
2023/05/13 05:39:58;;;;;;;8.93;2.77;;;;;;;19.51;28.86;100515.66;4956639;28;20291;-58
2023/05/13 05:42:30;;;;;;;8.33;3.40;;;;;;;19.30;29.58;100476.06;4955541;28;20307;-59
2023/05/13 05:45:02;;;;;;;9.67;3.10;;;;;;;19.55;28.98;100509.28;4957180;28;20311;-60
2023/05/13 05:47:38;;;;;;;3.67;2.47;;;;;;;19.44;28.54;100506.31;4955182;28;20274;-59
2023/05/13 05:50:10;;;;;;;10.17;3.13;;;;;;;19.44;29.39;100516.91;4954520;28;20384;-59
2023/05/13 05:52:41;;;;;;;7.87;2.90;;;;;;;19.38;29.01;100505.66;4961295;27;20845;-58
2023/05/13 05:55:13;;;;;;;7.93;2.60;;;;;;;19.39;28.52;100499.47;4961991;27;20291;-59
2023/05/13 05:57:45;;;;;;;9.57;2.80;;;;;;;19.38;29.07;100499.53;4953940;27;20288;-59
2023/05/13 06:00:17;;;;;;;20.57;3.97;;;;;;;19.33;28.83;100507.69;4969251;27;20322;-58
2023/05/13 06:02:49;;;;;;;16.50;3.00;;;;;;;18.89;29.36;100441.81;4968097;27;20283;-57
2023/05/13 06:05:22;;;;;;;18.03;3.87;;;;;;;19.21;28.34;100502.13;4968110;27;20402;-57
2023/05/13 06:07:52;;;;;;;7.70;3.10;;;;;;;19.11;28.36;100496.41;4964474;27;20293;-59
2023/05/13 06:10:38;;;;;;;10.30;2.87;;;;;;;18.98;28.22;100495.28;4957791;27;20657;-58
2023/05/13 06:14:25;;;;;;;12.73;3.60;;;;;;;19.19;28.45;100504.84;4941324;28;20292;-59
2023/05/13 06:17:10;;;;;;;12.67;3.10;;;;;;;19.24;27.46;100496.69;4935925;28;20278;-59
2023/05/13 06:19:41;;;;;;;8.23;3.77;;;;;;;19.24;27.41;100497.53;4951107;28;20633;-59
2023/05/13 06:22:12;;;;;;;6.13;2.90;;;;;;;19.18;27.18;100497.84;4951093;28;20281;-58
2023/05/13 06:24:45;;;;;;;9.10;3.27;;;;;;;19.09;27.22;100471.78;4945964;28;20267;-59
2023/05/13 06:27:19;;;;;;;7.53;2.93;;;;;;;19.06;27.11;100466.66;4951223;28;20297;-60
2023/05/13 06:29:52;;;;;;;7.47;3.40;;;;;;;19.26;26.93;100490.38;4950896;28;20788;-58
2023/05/13 06:32:25;;;;;;;9.33;2.93;;;;;;;19.34;27.51;100488.19;4945350;28;20279;-58
2023/05/13 06:34:55;;;;;;;6.77;3.07;;;;;;;19.30;26.29;100486.66;4951083;28;20334;-57
2023/05/13 06:37:26;;;;;;;10.00;2.90;;;;;;;19.36;26.52;100486.34;4951820;28;20286;-57
2023/05/13 06:39:59;;;;;;;12.00;2.80;;;;;;;19.44;26.70;100487.75;4951125;28;20277;-58
2023/05/13 06:42:32;;;;;;;13.37;2.97;;;;;;;19.47;26.34;100498.19;4950977;28;20289;-58
2023/05/13 06:45:03;;;;;;;4.00;2.30;;;;;;;19.50;26.11;100495.41;4947491;28;20289;-58
2023/05/13 06:47:36;;;;;;;6.77;2.70;;;;;;;19.47;25.38;100482.28;4951246;28;20279;-58
2023/05/13 06:50:07;;;;;;;8.13;2.57;;;;;;;19.44;25.50;100493.06;4950953;28;20300;-58
2023/05/13 06:52:39;;;;;;;6.70;2.73;;;;;;;19.41;24.38;100504.66;4950924;28;20287;-58
2023/05/13 06:55:11;;;;;;;5.20;2.87;;;;;;;19.33;24.82;100486.50;4950487;28;20294;-58
2023/05/13 06:57:45;;;;;;;10.70;3.20;;;;;;;19.22;25.53;100482.66;4949161;28;20289;-58
2023/05/13 07:00:20;;;;;;;11.50;4.30;;;;;;;19.24;25.96;100486.94;4950506;28;20281;-57
2023/05/13 07:02:52;;;;;;;9.43;4.43;;;;;;;19.22;25.63;100483.53;4950446;28;20300;-57
2023/05/13 07:05:26;;;;;;;23.80;5.57;;;;;;;19.11;25.29;100481.38;4943552;28;20271;-60
2023/05/13 07:08:09;;;;;;;;;;;;;;;;;;;;;
2023/05/13 07:10:45;;;;;;;19.87;3.23;;;;;;;18.81;25.09;100482.84;4924660;28;20332;-58
2023/05/13 07:13:25;;;;;;;9.40;3.37;;;;;;;18.28;25.95;100415.59;4939635;28;21118;-59
2023/05/13 07:15:57;;;;;;;15.35;3.30;;;;;;;18.64;25.91;100480.94;4940127;28;20813;-57
2023/05/13 07:18:30;;;;;;;14.00;3.67;;;;;;;18.66;25.89;100479.09;4950005;28;20874;-57
2023/05/13 07:21:02;;;;;;;5.57;3.00;;;;;;;18.57;26.01;100479.50;4950472;28;21045;-59
2023/05/13 07:23:36;;;;;;;6.93;3.20;;;;;;;18.47;25.71;100477.31;4944871;28;20274;-57
2023/05/13 07:26:09;;;;;;;10.20;3.30;;;;;;;18.45;26.08;100465.94;4950449;28;20285;-58
2023/05/13 07:28:40;;;;;;;16.47;3.70;;;;;;;18.37;26.34;100468.06;4950614;28;20832;-58
2023/05/13 07:31:12;;;;;;;7.57;3.37;;;;;;;18.35;26.24;100475.22;4949642;28;20364;-57
2023/05/13 07:33:47;;;;;;;13.60;3.90;;;;;;;18.19;26.92;100447.72;4947644;28;20745;-57
2023/05/13 07:36:19;;;;;;;10.40;3.43;;;;;;;18.16;26.54;100437.28;4949567;28;20326;-57
2023/05/13 07:38:51;;;;;;;5.93;3.50;;;;;;;18.36;26.86;100455.75;4949871;28;20278;-59
2023/05/13 07:41:22;;;;;;;23.43;4.63;;;;;;;18.50;27.00;100473.66;4949943;28;20297;-57
2023/05/13 07:43:53;;;;;;;16.50;5.60;;;;;;;18.45;26.48;100476.50;4929061;28;20297;-56
2023/05/13 07:46:24;;;;;;;9.20;4.90;;;;;;;18.18;27.02;100440.72;4932903;28;21159;-57
2023/05/13 07:49:09;;;;;;;11.30;4.97;;;;;;;18.36;26.80;100471.63;4950220;28;20657;-59
2023/05/13 07:51:41;;;;;;;8.40;4.50;;;;;;;18.27;27.08;100461.44;4939276;28;20620;-57
2023/05/13 07:54:13;;;;;;;9.77;4.23;;;;;;;18.45;27.57;100476.50;4960471;28;20365;-58
2023/05/13 07:56:47;;;;;;;5.20;3.47;;;;;;;18.34;27.11;100465.53;4922987;28;20274;-57
2023/05/13 07:59:18;;;;;;;15.97;4.80;;;;;;;18.41;26.85;100474.06;4949738;27;20369;-57
2023/05/13 08:01:52;;;;;;;9.07;3.90;;;;;;;18.35;26.88;100469.94;4922898;28;20283;-58
2023/05/13 08:04:25;;;;;;;28.27;4.30;;;;;;;18.36;28.06;100463.69;4935440;28;20290;-58
2023/05/13 08:06:56;;;;;;;7.50;2.90;;;;;;;18.47;28.07;100468.47;4929685;28;20282;-57
2023/05/13 08:09:28;;;;;;;6.33;3.20;;;;;;;18.40;27.61;100462.63;4930149;28;20273;-58
2023/05/13 08:12:00;;;;;;;6.93;2.90;;;;;;;18.30;28.00;100453.41;4923879;27;20286;-58
2023/05/13 08:14:39;;;;;;;8.37;3.50;;;;;;;18.15;27.95;100447.03;4958499;27;20769;-58
2023/05/13 08:17:12;;;;;;;7.50;3.00;;;;;;;18.21;28.32;100464.41;4945547;27;20276;-59
2023/05/13 08:19:51;;;;;;;9.40;3.27;;;;;;;18.17;28.95;100461.03;4931086;27;20151;-59
2023/05/13 08:22:26;;;;;;;5.80;3.37;;;;;;;18.13;28.12;100474.47;4931982;27;20279;-58
2023/05/13 08:24:59;;;;;;;6.30;3.30;;;;;;;17.87;28.03;100442.06;4960813;27;20277;-59
2023/05/13 08:27:30;;;;;;;13.23;4.37;;;;;;;17.60;27.65;100418.53;4956740;27;20747;-58
2023/05/13 08:30:01;;;;;;;7.80;3.90;;;;;;;17.79;27.11;100467.94;4958860;27;20295;-58
2023/05/13 08:32:34;;;;;;;10.43;3.93;;;;;;;17.62;27.15;100464.25;4957167;27;20295;-58
2023/05/13 08:35:08;;;;;;;16.00;3.60;;;;;;;17.22;27.65;100433.34;4931900;27;20356;-58
2023/05/13 08:37:40;;;;;;;7.00;3.50;;;;;;;17.43;27.75;100479.16;4959864;27;20285;-58
2023/05/13 08:40:14;;;;;;;9.63;3.20;;;;;;;17.34;27.73;100479.53;4958692;27;20291;-59
2023/05/13 08:42:49;;;;;;;14.93;3.50;;;;;;;17.21;28.18;100474.75;4949732;27;20741;-60
2023/05/13 08:45:23;;;;;;;10.47;2.83;;;;;;;17.16;27.70;100487.28;4960761;27;20284;-59
2023/05/13 08:47:59;;;;;;;9.30;2.63;;;;;;;16.93;27.49;100474.13;4949916;27;20366;-58
2023/05/13 08:50:33;;;;;;;8.03;2.80;;;;;;;16.85;27.70;100492.03;4959834;27;20313;-59
2023/05/13 08:53:05;;;;;;;9.40;2.97;;;;;;;16.75;27.72;100497.66;4949878;27;20747;-58
2023/05/13 08:55:37;;;;;;;8.17;2.30;;;;;;;16.64;27.93;100493.69;4961060;27;20285;-59
2023/05/13 08:58:09;;;;;;;14.33;2.10;;;;;;;16.54;28.24;100504.56;4958770;27;20616;-59
2023/05/13 09:00:43;;;;;;;8.23;2.60;;;;;;;16.35;27.85;100498.28;4960049;27;20300;-58
2023/05/13 09:03:15;;;;;;;6.67;2.47;;;;;;;16.22;28.14;100503.13;4949277;27;20758;-59
2023/05/13 09:05:52;;;;;;;10.87;2.93;;;;;;;16.07;28.04;100503.66;4960088;28;20281;-60
2023/05/13 09:08:26;;;;;;;5.10;2.22;;;;;;;15.97;28.04;100505.75;4904616;28;20288;-60
2023/05/13 09:10:58;;;;;;;20.00;3.73;;;;;;;15.64;28.87;100469.09;4959828;28;20047;-59
2023/05/13 09:13:30;;;;;;;6.40;2.50;;;;;;;15.74;28.38;100511.81;4960193;28;20293;-61
2023/05/13 09:16:02;;;;;;;9.43;2.10;;;;;;;15.57;28.65;100498.31;4960307;28;20289;-59
2023/05/13 09:18:34;;;;;;;6.53;2.30;;;;;;;15.57;29.29;100514.13;4951185;28;20286;-58
2023/05/13 09:21:25;;;;;;;8.50;2.77;;;;;;;15.43;29.85;100510.19;4959310;28;20296;-58
2023/05/13 09:24:16;;;;;;;11.70;2.83;;;;;;;15.21;31.04;100495.97;4948716;28;20277;-58
2023/05/13 09:26:52;;;;;;;12.57;5.73;;;;;;;15.17;31.79;100520.66;4948622;27;20277;-61
2023/05/13 09:29:25;;;;;;;19.07;7.20;;;;;;;14.97;32.52;100514.25;4958454;27;20335;-60
2023/05/13 09:31:58;;;;;;;11.50;5.03;;;;;;;14.72;32.82;100508.84;4963336;27;20685;-60
2023/05/13 09:34:34;;;;;;;8.53;3.50;;;;;;;14.57;33.14;100520.69;4963225;27;20277;-60
2023/05/13 09:37:25;;;;;;;6.30;3.30;;;;;;;14.06;33.34;100502.81;4933803;27;21110;-60
2023/05/13 09:39:59;;;;;;;7.93;4.17;;;;;;;13.99;33.81;100522.25;4950034;27;20611;-60
2023/05/13 09:42:48;;;;;;;9.20;3.88;;;;;;;13.86;34.14;100520.88;4961026;27;20283;-60
2023/05/13 09:45:32;;;;;;;13.52;4.28;;;;;;;13.66;34.17;100524.84;4948692;27;20095;-60
2023/05/13 09:48:05;;;;;;;8.23;3.40;;;;;;;13.49;34.58;100522.63;4955677;27;20082;-60
2023/05/13 09:50:48;;;;;;;9.80;3.60;;;;;;;13.41;34.73;100529.00;4962737;27;20057;-60
2023/05/13 09:53:22;;;;;;;8.10;2.90;;;;;;;13.29;35.28;100531.00;4952051;27;20106;-60
2023/05/13 09:55:55;;;;;;;16.20;4.25;;;;;;;12.85;35.55;100480.34;4956047;27;20112;-59
2023/05/13 09:58:29;;;;;;;66.28;40.40;;;;;;;12.87;36.09;100509.19;4962984;27;20138;-59
2023/05/13 10:01:02;;;;;;;25.52;10.07;;;;;;;12.93;36.34;100541.38;4962031;27;20469;-59
2023/05/13 10:03:34;;;;;;;30.92;16.23;;;;;;;12.83;36.40;100552.09;4958032;27;20063;-59
2023/05/13 10:06:07;;;;;;;6.45;4.03;;;;;;;12.78;36.55;100546.97;4962922;27;20059;-59
2023/05/13 10:08:40;;;;;;;19.80;11.85;;;;;;;12.67;36.74;100556.78;4962611;27;20696;-59
2023/05/13 10:11:14;;;;;;;13.00;3.70;;;;;;;12.56;36.87;100561.41;4962266;27;20055;-59
2023/05/13 10:13:51;;;;;;;5.50;3.08;;;;;;;12.52;36.69;100569.31;4951294;27;20436;-59
2023/05/13 10:16:30;;;;;;;6.65;3.95;;;;;;;12.10;37.19;100505.47;4952262;27;20637;-59
2023/05/13 10:19:03;;;;;;;8.20;3.72;;;;;;;12.42;37.12;100554.66;4962256;27;20058;-60
2023/05/13 10:21:35;;;;;;;15.48;5.13;;;;;;;12.06;37.44;100502.06;4952627;27;20081;-58
2023/05/13 10:24:09;;;;;;;8.32;3.53;;;;;;;12.38;37.44;100554.72;4960523;27;20047;-60
2023/05/13 10:26:42;;;;;;;10.48;4.80;;;;;;;12.37;37.11;100576.59;4961730;27;20039;-59
2023/05/13 10:29:15;;;;;;;12.73;3.90;;;;;;;12.28;37.25;100565.41;4956144;27;20060;-60
2023/05/13 10:31:48;;;;;;;16.75;4.40;;;;;;;12.22;37.02;100576.00;4962952;27;20047;-59
2023/05/13 10:34:20;;;;;;;13.07;4.90;;;;;;;12.17;37.41;100561.25;4950450;27;20043;-59
2023/05/13 10:37:04;;;;;;;7.70;4.15;;;;;;;12.14;37.76;100562.19;4950402;27;20048;-59
2023/05/13 10:40:05;;;;;;;9.02;4.32;;;;;;;12.13;37.49;100580.53;4940463;27;20075;-59
2023/05/13 10:42:41;;;;;;;4.90;3.95;;;;;;;12.00;37.81;100582.50;4930715;27;20130;-59
2023/05/13 10:45:13;;;;;;;7.25;4.00;;;;;;;12.00;37.79;100585.97;4948823;27;20120;-60
2023/05/13 10:47:44;;;;;;;5.78;3.28;;;;;;;11.90;38.07;100579.16;4953056;27;20064;-59
2023/05/13 10:50:25;;;;;;;4.43;2.80;;;;;;;11.85;38.18;100580.97;4950967;27;20051;-59
2023/05/13 10:53:02;;;;;;;8.32;2.83;;;;;;;11.73;38.44;100582.06;4939608;27;20046;-59
2023/05/13 10:55:45;;;;;;;3.65;2.42;;;;;;;11.62;38.94;100583.97;4945041;27;20053;-59
2023/05/13 10:58:21;;;;;;;10.30;3.40;;;;;;;11.69;38.93;100600.44;4939976;27;20052;-59
2023/05/13 11:00:53;;;;;;;6.78;3.15;;;;;;;11.29;38.97;100533.03;4951169;27;20083;-59
2023/05/13 11:03:31;;;;;;;5.00;2.97;;;;;;;11.70;39.13;100602.16;4940923;27;20454;-60
2023/05/13 11:06:17;;;;;;;5.90;2.95;;;;;;;11.66;39.12;100596.97;4940378;27;20460;-59
2023/05/13 11:08:50;;;;;;;5.15;3.40;;;;;;;11.22;38.70;100548.78;4933866;28;20074;-59
2023/05/13 11:11:31;;;;;;;4.55;2.83;;;;;;;11.01;39.10;100515.13;4935883;28;20055;-60
2023/05/13 11:14:16;;;;;;;5.45;2.75;;;;;;;11.51;39.39;100612.91;4941989;28;20054;-59
2023/05/13 11:16:52;;;;;;;5.60;2.60;;;;;;;11.52;38.97;100609.41;4935721;27;20055;-59
2023/05/13 11:19:27;;;;;;;7.88;2.30;;;;;;;11.47;39.01;100595.53;4937673;28;20053;-59
2023/05/13 11:22:05;;;;;;;5.32;2.50;;;;;;;11.44;39.08;100598.19;4946004;27;20104;-59
2023/05/13 11:24:38;;;;;;;5.10;2.10;;;;;;;11.43;39.10;100604.28;4935615;27;20473;-59
2023/05/13 11:27:18;;;;;;;4.20;2.50;;;;;;;11.38;38.62;100590.41;4944888;28;20406;-59
2023/05/13 11:29:53;;;;;;;6.45;2.40;;;;;;;11.43;38.88;100599.06;4935377;27;20065;-59
2023/05/13 11:32:54;;;;;;;4.20;2.38;;;;;;;11.45;38.84;100607.75;4935414;27;20056;-59
2023/05/13 11:35:27;;;;;;;4.07;2.20;;;;;;;11.38;39.07;100606.13;4923407;28;20052;-59
2023/05/13 11:38:01;;;;;;;3.90;2.28;;;;;;;10.76;38.91;100518.06;4944821;27;20251;-59
2023/05/13 11:40:33;;;;;;;5.43;2.65;;;;;;;11.24;39.00;100590.63;4945820;27;20126;-59
2023/05/13 11:43:08;;;;;;;3.53;2.10;;;;;;;11.29;39.31;100598.41;4935446;27;20062;-59
2023/05/13 11:45:41;;;;;;;3.30;2.28;;;;;;;11.25;39.12;100604.56;4945308;28;20467;-59
2023/05/13 11:48:22;;;;;;;4.53;2.13;;;;;;;11.21;38.84;100604.63;4944145;28;20157;-59
2023/05/13 11:50:57;;;;;;;5.00;2.60;;;;;;;11.14;39.49;100587.28;4936218;28;20171;-60
2023/05/13 11:53:29;;;;;;;5.88;2.33;;;;;;;11.19;39.37;100601.16;4944269;28;20063;-59
2023/05/13 11:56:12;;;;;;;8.77;2.67;;;;;;;10.99;39.35;100563.94;4945251;27;20050;-58
2023/05/13 11:58:45;;;;;;;6.53;2.40;;;;;;;11.15;39.15;100598.59;4929519;27;20071;-59